SAS676 EDDF-EKCH
Flight info
| Callsign | SAS676 |
|---|---|
| Flight time | 1h 4m |
| Altitude | 35000 |
| Route | MARUN3W/25C MARUN Y150 TOLGI DCT SAS DCT MAKEL N851 GESKA Z711 MONAK |
| Aircraft | B738/M-SDE2E3FGHIRWXY/LB1 |
Departure
| Time | 2026-05-04 10:44 |
|---|---|
| Airport | Frankfurt Main Airport (EDDF) |
Arrival
| Time | 2026-05-04 11:49 |
|---|---|
| Airport | Copenhagen Kastrup Airport (EKCH) |
| Time | Latitude | Longitude | Altitude | Speed | Heading |
|---|---|---|---|---|---|
| 2026-05-04 09:56 | 50.05099 | 8.58866 | 363 ft | 0 kts | 322° |
| 2026-05-04 10:05 | 50.05098 | 8.58866 | 358 ft | 0 kts | 322° |
| 2026-05-04 10:06 | 50.05098 | 8.58867 | 358 ft | 0 kts | 322° |
| 2026-05-04 10:22 | 50.05100 | 8.58864 | 358 ft | 0 kts | 321° |
| 2026-05-04 10:29 | 50.05093 | 8.58873 | 361 ft | 4 kts | 321° |
| 2026-05-04 10:29 | 50.05072 | 8.58899 | 358 ft | 4 kts | 322° |
| 2026-05-04 10:30 | 50.05055 | 8.58918 | 358 ft | 4 kts | 331° |
| 2026-05-04 10:30 | 50.05034 | 8.58936 | 361 ft | 4 kts | 325° |
| 2026-05-04 10:30 | 50.05020 | 8.58961 | 364 ft | 4 kts | 257° |
| 2026-05-04 10:30 | 50.05028 | 8.58996 | 361 ft | 3 kts | 249° |
| 2026-05-04 10:31 | 50.05029 | 8.59002 | 360 ft | 0 kts | 249° |
| 2026-05-04 10:32 | 50.05032 | 8.59011 | 359 ft | 0 kts | 250° |
| 2026-05-04 10:36 | 50.05029 | 8.59000 | 360 ft | 3 kts | 250° |
| 2026-05-04 10:36 | 50.05017 | 8.58948 | 365 ft | 4 kts | 250° |
| 2026-05-04 10:37 | 50.05002 | 8.58885 | 358 ft | 9 kts | 250° |
| 2026-05-04 10:37 | 50.04976 | 8.58778 | 360 ft | 12 kts | 249° |
| 2026-05-04 10:37 | 50.04936 | 8.58676 | 359 ft | 11 kts | 207° |
| 2026-05-04 10:37 | 50.04871 | 8.58693 | 361 ft | 7 kts | 159° |
| 2026-05-04 10:39 | 50.04711 | 8.58769 | 368 ft | 11 kts | 181° |
| 2026-05-04 10:39 | 50.04633 | 8.58756 | 369 ft | 11 kts | 188° |
| 2026-05-04 10:39 | 50.04568 | 8.58696 | 370 ft | 12 kts | 219° |
| 2026-05-04 10:40 | 50.04504 | 8.58614 | 370 ft | 9 kts | 220° |
| 2026-05-04 10:40 | 50.04474 | 8.58534 | 369 ft | 9 kts | 250° |
| 2026-05-04 10:40 | 50.04463 | 8.58487 | 369 ft | 0 kts | 249° |
| 2026-05-04 10:40 | 50.04462 | 8.58484 | 369 ft | 4 kts | 249° |
| 2026-05-04 10:41 | 50.04462 | 8.58482 | 369 ft | 0 kts | 249° |
| 2026-05-04 10:42 | 50.04461 | 8.58479 | 369 ft | 4 kts | 249° |
| 2026-05-04 10:42 | 50.04374 | 8.58119 | 370 ft | 71 kts | 249° |
| 2026-05-04 10:42 | 50.04128 | 8.57083 | 363 ft | 131 kts | 250° |
| 2026-05-04 10:43 | 50.03752 | 8.55512 | 387 ft | 174 kts | 250° |
| 2026-05-04 10:44 | 49.97066 | 8.47335 | 4319 ft | 216 kts | 187° |
| 2026-05-04 10:45 | 49.95571 | 8.46998 | 4908 ft | 220 kts | 191° |
| 2026-05-04 10:45 | 49.94025 | 8.46340 | 5152 ft | 239 kts | 198° |
| 2026-05-04 10:45 | 49.92404 | 8.45477 | 5431 ft | 258 kts | 204° |
| 2026-05-04 10:45 | 49.91070 | 8.43661 | 6121 ft | 258 kts | 240° |
| 2026-05-04 10:46 | 49.90553 | 8.41010 | 6900 ft | 261 kts | 267° |
| 2026-05-04 10:46 | 49.90891 | 8.38226 | 7548 ft | 268 kts | 297° |
| 2026-05-04 10:46 | 49.92066 | 8.35998 | 8260 ft | 276 kts | 320° |
| 2026-05-04 10:46 | 49.93835 | 8.34643 | 8673 ft | 291 kts | 351° |
| 2026-05-04 10:47 | 49.95870 | 8.34780 | 9214 ft | 303 kts | 17° |
| 2026-05-04 10:47 | 49.97803 | 8.36087 | 10043 ft | 302 kts | 26° |
| 2026-05-04 10:47 | 49.99687 | 8.37609 | 10586 ft | 313 kts | 28° |
| 2026-05-04 10:47 | 50.01679 | 8.39272 | 10744 ft | 336 kts | 28° |
| 2026-05-04 10:49 | 50.17400 | 8.51995 | 14245 ft | 378 kts | 27° |
| 2026-05-04 10:49 | 50.19758 | 8.53873 | 14738 ft | 382 kts | 27° |
| 2026-05-04 10:50 | 50.22129 | 8.55761 | 15220 ft | 385 kts | 27° |
| 2026-05-04 10:51 | 50.39339 | 8.69532 | 18238 ft | 408 kts | 27° |
| 2026-05-04 10:52 | 50.41860 | 8.71559 | 18662 ft | 408 kts | 27° |
| 2026-05-04 10:52 | 50.44390 | 8.73595 | 18992 ft | 411 kts | 27° |
| 2026-05-04 10:52 | 50.46941 | 8.75650 | 19284 ft | 414 kts | 27° |
| 2026-05-04 10:54 | 50.65174 | 8.90417 | 21204 ft | 429 kts | 27° |
| 2026-05-04 10:54 | 50.67836 | 8.92584 | 21443 ft | 430 kts | 27° |
| 2026-05-04 10:56 | 50.86701 | 9.08020 | 22876 ft | 441 kts | 27° |
| 2026-05-04 10:56 | 50.89425 | 9.10261 | 23056 ft | 443 kts | 27° |
| 2026-05-04 10:56 | 50.92165 | 9.12518 | 23227 ft | 444 kts | 27° |
| 2026-05-04 10:57 | 50.94867 | 9.14747 | 23385 ft | 445 kts | 27° |
| 2026-05-04 10:57 | 50.97660 | 9.17053 | 23441 ft | 449 kts | 27° |
| 2026-05-04 10:57 | 51.00395 | 9.19315 | 23627 ft | 448 kts | 27° |
| 2026-05-04 10:57 | 51.03161 | 9.21606 | 23808 ft | 448 kts | 27° |
| 2026-05-04 10:58 | 51.05927 | 9.23899 | 23936 ft | 449 kts | 27° |
| 2026-05-04 10:58 | 51.08700 | 9.26201 | 24033 ft | 450 kts | 27° |
| 2026-05-04 10:58 | 51.11556 | 9.28272 | 24108 ft | 451 kts | 20° |
| 2026-05-04 10:58 | 51.14581 | 9.29597 | 24203 ft | 452 kts | 12° |
| 2026-05-04 10:59 | 51.16619 | 9.30257 | 24262 ft | 452 kts | 11° |
| 2026-05-04 10:59 | 51.19711 | 9.31215 | 24344 ft | 453 kts | 11° |
| 2026-05-04 10:59 | 51.22804 | 9.32195 | 24455 ft | 454 kts | 11° |
| 2026-05-04 10:59 | 51.25914 | 9.33229 | 24526 ft | 456 kts | 12° |
| 2026-05-04 11:00 | 51.29018 | 9.34290 | 24557 ft | 457 kts | 12° |
| 2026-05-04 11:01 | 51.50896 | 9.41258 | 24759 ft | 477 kts | 5° |
| 2026-05-04 11:02 | 51.54142 | 9.42304 | 25412 ft | 474 kts | 9° |
| 2026-05-04 11:02 | 51.57299 | 9.43610 | 26344 ft | 464 kts | 12° |
| 2026-05-04 11:05 | 52.00648 | 9.67972 | 32090 ft | 485 kts | 24° |
| 2026-05-04 11:06 | 52.03661 | 9.70485 | 32488 ft | 485 kts | 24° |
| 2026-05-04 11:06 | 52.06672 | 9.72988 | 32851 ft | 485 kts | 24° |
| 2026-05-04 11:06 | 52.09678 | 9.75488 | 33187 ft | 486 kts | 24° |
| 2026-05-04 11:06 | 52.12698 | 9.78005 | 33587 ft | 486 kts | 24° |
| 2026-05-04 11:08 | 52.33547 | 9.95339 | 34969 ft | 483 kts | 23° |
| 2026-05-04 11:10 | 52.54507 | 10.12761 | 34990 ft | 483 kts | 23° |
| 2026-05-04 11:12 | 52.78484 | 10.32903 | 34980 ft | 485 kts | 23° |
| 2026-05-04 11:12 | 52.84488 | 10.37986 | 34980 ft | 485 kts | 23° |
| 2026-05-04 11:13 | 52.90473 | 10.43069 | 34967 ft | 484 kts | 23° |
| 2026-05-04 11:13 | 52.96462 | 10.48172 | 34980 ft | 483 kts | 23° |
| 2026-05-04 11:14 | 53.02457 | 10.53295 | 34966 ft | 484 kts | 23° |
| 2026-05-04 11:16 | 53.26269 | 10.73805 | 35003 ft | 481 kts | 23° |
| 2026-05-04 11:16 | 53.32219 | 10.78970 | 34978 ft | 481 kts | 23° |
| 2026-05-04 11:17 | 53.38142 | 10.84128 | 34971 ft | 481 kts | 24° |
| 2026-05-04 11:19 | 53.61822 | 11.04914 | 34981 ft | 482 kts | 24° |
| 2026-05-04 11:19 | 53.67763 | 11.10171 | 34977 ft | 482 kts | 24° |
| 2026-05-04 11:20 | 53.73700 | 11.15441 | 35000 ft | 482 kts | 24° |
| 2026-05-04 11:20 | 53.79654 | 11.20743 | 34976 ft | 483 kts | 24° |
| 2026-05-04 11:22 | 54.00564 | 11.39500 | 32643 ft | 488 kts | 23° |
| 2026-05-04 11:22 | 54.03543 | 11.42194 | 32155 ft | 484 kts | 23° |
| 2026-05-04 11:23 | 54.06505 | 11.44877 | 31666 ft | 479 kts | 23° |
| 2026-05-04 11:23 | 54.09433 | 11.47532 | 31178 ft | 475 kts | 22° |
| 2026-05-04 11:24 | 54.26456 | 11.63037 | 28264 ft | 451 kts | 22° |
| 2026-05-04 11:25 | 54.29210 | 11.65559 | 27780 ft | 448 kts | 22° |
| 2026-05-04 11:25 | 54.31951 | 11.68072 | 27297 ft | 444 kts | 22° |
| 2026-05-04 11:25 | 54.34665 | 11.70565 | 26837 ft | 441 kts | 22° |
| 2026-05-04 11:26 | 54.40044 | 11.75515 | 25904 ft | 436 kts | 22° |
| 2026-05-04 11:27 | 54.58907 | 11.91004 | 22428 ft | 423 kts | 19° |
| 2026-05-04 11:28 | 54.61558 | 11.93128 | 21972 ft | 420 kts | 21° |
| 2026-05-04 11:28 | 54.64086 | 11.95655 | 21600 ft | 418 kts | 28° |
| 2026-05-04 11:28 | 54.66500 | 11.98436 | 21155 ft | 416 kts | 30° |
| 2026-05-04 11:28 | 54.68873 | 12.01262 | 20732 ft | 413 kts | 30° |
| 2026-05-04 11:29 | 54.71206 | 12.04045 | 20285 ft | 410 kts | 30° |
| 2026-05-04 11:29 | 54.73562 | 12.06832 | 19828 ft | 407 kts | 30° |
| 2026-05-04 11:29 | 54.75897 | 12.09570 | 19388 ft | 405 kts | 30° |
| 2026-05-04 11:29 | 54.78223 | 12.12283 | 18935 ft | 402 kts | 30° |
| 2026-05-04 11:31 | 54.93898 | 12.30580 | 15807 ft | 363 kts | 30° |
| 2026-05-04 11:33 | 55.08100 | 12.47199 | 13089 ft | 348 kts | 30° |
| 2026-05-04 11:33 | 55.10110 | 12.49551 | 12662 ft | 347 kts | 30° |
| 2026-05-04 11:33 | 55.12112 | 12.51897 | 12252 ft | 346 kts | 30° |
| 2026-05-04 11:34 | 55.14102 | 12.54234 | 11850 ft | 344 kts | 30° |
| 2026-05-04 11:34 | 55.16089 | 12.56569 | 11459 ft | 343 kts | 30° |
| 2026-05-04 11:34 | 55.18066 | 12.58894 | 11074 ft | 341 kts | 30° |
| 2026-05-04 11:34 | 55.20007 | 12.61183 | 10938 ft | 332 kts | 30° |
| 2026-05-04 11:35 | 55.21899 | 12.63417 | 10778 ft | 324 kts | 30° |
| 2026-05-04 11:35 | 55.23792 | 12.65429 | 10549 ft | 314 kts | 18° |
| 2026-05-04 11:35 | 55.25841 | 12.66646 | 10246 ft | 309 kts | 11° |
| 2026-05-04 11:35 | 55.27886 | 12.67715 | 10050 ft | 303 kts | 11° |
| 2026-05-04 11:36 | 55.29881 | 12.68787 | 9902 ft | 297 kts | 12° |
| 2026-05-04 11:36 | 55.31849 | 12.69878 | 9583 ft | 297 kts | 12° |
| 2026-05-04 11:36 | 55.33815 | 12.70989 | 9268 ft | 296 kts | 13° |
| 2026-05-04 11:36 | 55.35741 | 12.72086 | 8965 ft | 295 kts | 13° |
| 2026-05-04 11:37 | 55.37687 | 12.73199 | 8670 ft | 293 kts | 13° |
| 2026-05-04 11:37 | 55.39620 | 12.74306 | 8389 ft | 291 kts | 13° |
| 2026-05-04 11:37 | 55.41543 | 12.75407 | 8099 ft | 290 kts | 13° |
| 2026-05-04 11:37 | 55.43453 | 12.76502 | 7814 ft | 288 kts | 13° |
| 2026-05-04 11:38 | 55.45353 | 12.77594 | 7516 ft | 283 kts | 13° |
| 2026-05-04 11:38 | 55.47206 | 12.78660 | 7238 ft | 276 kts | 13° |
| 2026-05-04 11:38 | 55.49013 | 12.79701 | 6977 ft | 271 kts | 13° |
| 2026-05-04 11:38 | 55.50803 | 12.80729 | 6723 ft | 271 kts | 13° |
| 2026-05-04 11:39 | 55.52575 | 12.81748 | 6463 ft | 270 kts | 13° |
| 2026-05-04 11:39 | 55.54357 | 12.82776 | 6192 ft | 269 kts | 13° |
| 2026-05-04 11:40 | 55.64368 | 12.90970 | 4826 ft | 264 kts | 38° |
| 2026-05-04 11:41 | 55.65713 | 12.93160 | 4686 ft | 267 kts | 38° |
| 2026-05-04 11:41 | 55.67101 | 12.95382 | 4524 ft | 270 kts | 37° |
| 2026-05-04 11:41 | 55.68499 | 12.97591 | 4356 ft | 267 kts | 37° |
| 2026-05-04 11:41 | 55.69870 | 12.99748 | 4212 ft | 260 kts | 37° |
| 2026-05-04 11:42 | 55.71212 | 13.01855 | 4049 ft | 254 kts | 36° |
| 2026-05-04 11:42 | 55.72544 | 13.03860 | 3900 ft | 246 kts | 28° |
| 2026-05-04 11:42 | 55.74092 | 13.04722 | 3757 ft | 227 kts | 354° |
| 2026-05-04 11:42 | 55.75561 | 13.04089 | 3644 ft | 213 kts | 329° |
| 2026-05-04 11:43 | 55.76687 | 13.02521 | 3536 ft | 208 kts | 308° |
| 2026-05-04 11:43 | 55.77425 | 13.00329 | 3428 ft | 209 kts | 289° |
| 2026-05-04 11:43 | 55.77699 | 12.97782 | 3313 ft | 212 kts | 278° |
| 2026-05-04 11:43 | 55.77876 | 12.95190 | 3176 ft | 211 kts | 277° |
| 2026-05-04 11:44 | 55.77980 | 12.92614 | 3014 ft | 208 kts | 264° |
| 2026-05-04 11:44 | 55.77340 | 12.90373 | 2896 ft | 206 kts | 230° |
| 2026-05-04 11:44 | 55.76370 | 12.88561 | 2764 ft | 199 kts | 232° |
| 2026-05-04 11:44 | 55.75421 | 12.86805 | 2642 ft | 196 kts | 228° |
| 2026-05-04 11:45 | 55.74441 | 12.85199 | 2542 ft | 187 kts | 226° |
| 2026-05-04 11:45 | 55.73475 | 12.83691 | 2405 ft | 181 kts | 226° |
| 2026-05-04 11:45 | 55.72541 | 12.82249 | 2274 ft | 176 kts | 226° |
| 2026-05-04 11:45 | 55.71627 | 12.80842 | 2155 ft | 173 kts | 226° |
| 2026-05-04 11:46 | 55.70749 | 12.79473 | 2063 ft | 178 kts | 227° |
| 2026-05-04 11:46 | 55.69797 | 12.78002 | 1924 ft | 170 kts | 226° |
| 2026-05-04 11:46 | 55.68913 | 12.76632 | 1656 ft | 168 kts | 225° |
| 2026-05-04 11:46 | 55.68065 | 12.75333 | 1485 ft | 160 kts | 227° |
| 2026-05-04 11:47 | 55.67255 | 12.74074 | 1262 ft | 149 kts | 226° |
| 2026-05-04 11:47 | 55.66503 | 12.72907 | 1129 ft | 144 kts | 227° |
| 2026-05-04 11:47 | 55.65763 | 12.71766 | 909 ft | 140 kts | 226° |
| 2026-05-04 11:47 | 55.65041 | 12.70642 | 656 ft | 138 kts | 227° |
| 2026-05-04 11:48 | 55.64325 | 12.69529 | 506 ft | 138 kts | 224° |
| 2026-05-04 11:48 | 55.63848 | 12.68786 | 400 ft | 138 kts | 225° |
| 2026-05-04 11:48 | 55.63117 | 12.67658 | 214 ft | 139 kts | 226° |
| 2026-05-04 11:48 | 55.62395 | 12.66529 | 29 ft | 137 kts | 220° |
| 2026-05-04 11:49 | 55.61755 | 12.65540 | 16 ft | 102 kts | 221° |
| 2026-05-04 11:49 | 55.61376 | 12.64952 | 18 ft | 36 kts | 221° |
| 2026-05-04 11:49 | 55.61266 | 12.64696 | 17 ft | 25 kts | 249° |
| 2026-05-04 11:49 | 55.61214 | 12.64420 | 17 ft | 23 kts | 251° |
| 2026-05-04 11:50 | 55.61178 | 12.64208 | 16 ft | 13 kts | 270° |
| 2026-05-04 11:50 | 55.61234 | 12.64096 | 16 ft | 13 kts | 344° |
| 2026-05-04 11:50 | 55.61307 | 12.64144 | 16 ft | 11 kts | 33° |
| 2026-05-04 11:50 | 55.61373 | 12.64220 | 18 ft | 11 kts | 33° |
| 2026-05-04 11:51 | 55.61440 | 12.64297 | 18 ft | 13 kts | 32° |
| 2026-05-04 11:51 | 55.61524 | 12.64394 | 19 ft | 16 kts | 33° |
| 2026-05-04 11:51 | 55.61628 | 12.64513 | 18 ft | 19 kts | 32° |
| 2026-05-04 11:51 | 55.61744 | 12.64648 | 18 ft | 21 kts | 33° |
| 2026-05-04 11:52 | 55.61870 | 12.64791 | 16 ft | 22 kts | 32° |
| 2026-05-04 11:52 | 55.62003 | 12.64942 | 17 ft | 22 kts | 33° |
| 2026-05-04 11:52 | 55.62128 | 12.65089 | 17 ft | 21 kts | 33° |
| 2026-05-04 11:52 | 55.62215 | 12.65177 | 16 ft | 11 kts | 6° |
| 2026-05-04 11:53 | 55.62268 | 12.65093 | 17 ft | 11 kts | 302° |
| 2026-05-04 11:53 | 55.62307 | 12.64984 | 16 ft | 10 kts | 304° |
| 2026-05-04 11:53 | 55.62348 | 12.64876 | 16 ft | 11 kts | 303° |
| 2026-05-04 11:53 | 55.62395 | 12.64745 | 18 ft | 14 kts | 304° |
| 2026-05-04 11:55 | 55.62678 | 12.63980 | 16 ft | 0 kts | 302° |
| 2026-05-04 11:56 | 55.62684 | 12.63962 | -6 ft | 4 kts | 302° |
| 2026-05-04 11:56 | 55.62712 | 12.63909 | 16 ft | 6 kts | 339° |
| 2026-05-04 11:56 | 55.62753 | 12.63935 | 16 ft | 7 kts | 31° |
| 2026-05-04 11:57 | 55.62800 | 12.63956 | 16 ft | 7 kts | 347° |
| 2026-05-04 11:57 | 55.62827 | 12.63921 | 16 ft | 3 kts | 328° |
| 2026-05-04 11:57 | 55.62849 | 12.63923 | 16 ft | 3 kts | 12° |
| 2026-05-04 11:57 | 55.62871 | 12.63931 | 16 ft | 1 kts | 12° |
| 2026-05-04 11:58 | 55.62874 | 12.63932 | 16 ft | 0 kts | 12° |